sensor_id;sensor_type;location;lat;lon;timestamp;temperature;humidity
46378;DHT22;32083;47.360;9.650;2023-11-19T00:15:00;6.70;99.90
46378;DHT22;32083;47.360;9.650;2023-11-19T01:12:08;7.00;99.90
46378;DHT22;32083;47.360;9.650;2023-11-19T01:15:34;7.10;99.90
46378;DHT22;32083;47.360;9.650;2023-11-19T02:10:55;7.40;99.90
46378;DHT22;32083;47.360;9.650;2023-11-19T03:09:15;7.50;99.90
46378;DHT22;32083;47.360;9.650;2023-11-19T03:15:59;7.40;99.90
46378;DHT22;32083;47.360;9.650;2023-11-19T03:54:51;7.40;99.90
46378;DHT22;32083;47.360;9.650;2023-11-19T03:58:10;7.40;99.90
46378;DHT22;32083;47.360;9.650;2023-11-19T04:12:20;7.50;99.90
46378;DHT22;32083;47.360;9.650;2023-11-19T05:01:48;7.70;99.90
46378;DHT22;32083;47.360;9.650;2023-11-19T05:04:14;7.60;99.90
46378;DHT22;32083;47.360;9.650;2023-11-19T05:06:40;7.60;99.90
46378;DHT22;32083;47.360;9.650;2023-11-19T05:09:07;7.60;99.90
46378;DHT22;32083;47.360;9.650;2023-11-19T05:11:34;7.60;99.90
46378;DHT22;32083;47.360;9.650;2023-11-19T05:14:02;7.60;99.90
46378;DHT22;32083;47.360;9.650;2023-11-19T05:16:32;7.60;99.90
46378;DHT22;32083;47.360;9.650;2023-11-19T05:18:58;7.60;99.90
46378;DHT22;32083;47.360;9.650;2023-11-19T05:21:23;7.60;99.90
46378;DHT22;32083;47.360;9.650;2023-11-19T05:23:49;7.50;99.90
46378;DHT22;32083;47.360;9.650;2023-11-19T05:26:23;7.60;99.90
46378;DHT22;32083;47.360;9.650;2023-11-19T05:28:50;7.60;99.90
46378;DHT22;32083;47.360;9.650;2023-11-19T05:31:17;7.60;99.90
46378;DHT22;32083;47.360;9.650;2023-11-19T05:33:43;7.60;99.90
46378;DHT22;32083;47.360;9.650;2023-11-19T05:36:12;7.60;99.90
46378;DHT22;32083;47.360;9.650;2023-11-19T05:38:38;7.60;99.90
46378;DHT22;32083;47.360;9.650;2023-11-19T05:41:05;7.60;99.90
46378;DHT22;32083;47.360;9.650;2023-11-19T05:43:32;7.60;99.90
46378;DHT22;32083;47.360;9.650;2023-11-19T05:45:58;7.60;99.90
46378;DHT22;32083;47.360;9.650;2023-11-19T05:48:26;7.50;99.90
46378;DHT22;32083;47.360;9.650;2023-11-19T05:50:52;7.50;99.90
46378;DHT22;32083;47.360;9.650;2023-11-19T05:53:19;7.60;99.90
46378;DHT22;32083;47.360;9.650;2023-11-19T05:55:45;7.50;99.90
46378;DHT22;32083;47.360;9.650;2023-11-19T05:58:29;7.60;99.90
46378;DHT22;32083;47.360;9.650;2023-11-19T06:00:56;7.60;99.90
46378;DHT22;32083;47.360;9.650;2023-11-19T06:03:22;7.60;99.90
46378;DHT22;32083;47.360;9.650;2023-11-19T06:05:49;7.60;99.90
46378;DHT22;32083;47.360;9.650;2023-11-19T06:08:15;7.60;99.90
46378;DHT22;32083;47.360;9.650;2023-11-19T06:10:41;7.60;99.90
46378;DHT22;32083;47.360;9.650;2023-11-19T06:13:07;7.60;99.90
46378;DHT22;32083;47.360;9.650;2023-11-19T06:15:36;7.60;99.90
46378;DHT22;32083;47.360;9.650;2023-11-19T06:18:02;7.60;99.90
46378;DHT22;32083;47.360;9.650;2023-11-19T06:20:32;7.60;99.90
46378;DHT22;32083;47.360;9.650;2023-11-19T06:22:59;7.60;99.90
46378;DHT22;32083;47.360;9.650;2023-11-19T06:25:25;7.60;99.90
46378;DHT22;32083;47.360;9.650;2023-11-19T06:28:05;7.70;99.90
46378;DHT22;32083;47.360;9.650;2023-11-19T06:30:31;7.70;99.90
46378;DHT22;32083;47.360;9.650;2023-11-19T06:32:58;7.70;99.90
46378;DHT22;32083;47.360;9.650;2023-11-19T06:35:24;7.70;99.90
46378;DHT22;32083;47.360;9.650;2023-11-19T06:37:50;7.60;99.90
46378;DHT22;32083;47.360;9.650;2023-11-19T06:40:16;7.60;99.90
46378;DHT22;32083;47.360;9.650;2023-11-19T06:42:42;7.60;99.90
46378;DHT22;32083;47.360;9.650;2023-11-19T06:45:08;7.60;99.90
46378;DHT22;32083;47.360;9.650;2023-11-19T06:47:35;7.60;99.90
46378;DHT22;32083;47.360;9.650;2023-11-19T06:50:01;7.60;99.90
46378;DHT22;32083;47.360;9.650;2023-11-19T06:52:29;7.50;99.90
46378;DHT22;32083;47.360;9.650;2023-11-19T06:54:56;7.50;99.90
46378;DHT22;32083;47.360;9.650;2023-11-19T06:57:23;7.50;99.90
46378;DHT22;32083;47.360;9.650;2023-11-19T06:59:49;7.50;99.90
46378;DHT22;32083;47.360;9.650;2023-11-19T07:02:15;7.60;99.90
46378;DHT22;32083;47.360;9.650;2023-11-19T07:04:41;7.60;99.90
46378;DHT22;32083;47.360;9.650;2023-11-19T07:07:06;7.50;99.90
46378;DHT22;32083;47.360;9.650;2023-11-19T07:09:32;7.50;99.90
46378;DHT22;32083;47.360;9.650;2023-11-19T07:11:59;7.50;99.90
46378;DHT22;32083;47.360;9.650;2023-11-19T07:14:27;7.50;99.90
46378;DHT22;32083;47.360;9.650;2023-11-19T07:16:54;7.60;99.90
46378;DHT22;32083;47.360;9.650;2023-11-19T07:19:21;7.60;99.90
46378;DHT22;32083;47.360;9.650;2023-11-19T07:21:47;7.60;99.90
46378;DHT22;32083;47.360;9.650;2023-11-19T07:24:13;7.60;99.90
46378;DHT22;32083;47.360;9.650;2023-11-19T07:26:43;7.70;99.90
46378;DHT22;32083;47.360;9.650;2023-11-19T07:29:10;7.70;99.90
46378;DHT22;32083;47.360;9.650;2023-11-19T07:31:36;7.70;99.90
46378;DHT22;32083;47.360;9.650;2023-11-19T07:34:02;7.70;99.90
46378;DHT22;32083;47.360;9.650;2023-11-19T07:36:29;7.70;99.90
46378;DHT22;32083;47.360;9.650;2023-11-19T07:38:55;7.70;99.90
46378;DHT22;32083;47.360;9.650;2023-11-19T07:41:23;7.70;99.90
46378;DHT22;32083;47.360;9.650;2023-11-19T07:43:51;7.70;99.90
46378;DHT22;32083;47.360;9.650;2023-11-19T07:46:18;7.70;99.90
46378;DHT22;32083;47.360;9.650;2023-11-19T07:48:47;7.70;99.90
46378;DHT22;32083;47.360;9.650;2023-11-19T07:51:13;7.70;99.90
46378;DHT22;32083;47.360;9.650;2023-11-19T07:53:42;7.70;99.90
46378;DHT22;32083;47.360;9.650;2023-11-19T07:56:08;7.80;99.90
46378;DHT22;32083;47.360;9.650;2023-11-19T07:58:34;7.80;99.90
46378;DHT22;32083;47.360;9.650;2023-11-19T08:01:01;7.80;99.90
46378;DHT22;32083;47.360;9.650;2023-11-19T08:03:29;7.80;99.90
46378;DHT22;32083;47.360;9.650;2023-11-19T08:05:56;7.90;99.90
46378;DHT22;32083;47.360;9.650;2023-11-19T08:08:22;7.90;99.90
46378;DHT22;32083;47.360;9.650;2023-11-19T08:10:48;7.90;99.90
46378;DHT22;32083;47.360;9.650;2023-11-19T08:13:14;8.00;99.90
46378;DHT22;32083;47.360;9.650;2023-11-19T08:15:40;8.00;99.90
46378;DHT22;32083;47.360;9.650;2023-11-19T08:18:06;8.10;99.90
46378;DHT22;32083;47.360;9.650;2023-11-19T08:20:33;8.10;99.90
46378;DHT22;32083;47.360;9.650;2023-11-19T08:22:59;8.10;99.90
46378;DHT22;32083;47.360;9.650;2023-11-19T08:25:25;8.20;99.90
46378;DHT22;32083;47.360;9.650;2023-11-19T08:27:51;8.20;99.90
46378;DHT22;32083;47.360;9.650;2023-11-19T08:30:19;8.20;99.90
46378;DHT22;32083;47.360;9.650;2023-11-19T08:32:45;8.20;99.90
46378;DHT22;32083;47.360;9.650;2023-11-19T08:35:11;8.20;99.90
46378;DHT22;32083;47.360;9.650;2023-11-19T08:37:37;8.20;99.90
46378;DHT22;32083;47.360;9.650;2023-11-19T08:40:04;8.20;99.90
46378;DHT22;32083;47.360;9.650;2023-11-19T08:42:31;8.20;99.90
46378;DHT22;32083;47.360;9.650;2023-11-19T08:44:57;8.30;99.90
46378;DHT22;32083;47.360;9.650;2023-11-19T08:47:23;8.30;99.90
46378;DHT22;32083;47.360;9.650;2023-11-19T08:49:52;8.30;99.90
46378;DHT22;32083;47.360;9.650;2023-11-19T08:52:19;8.30;99.90
46378;DHT22;32083;47.360;9.650;2023-11-19T08:54:44;8.30;99.90
46378;DHT22;32083;47.360;9.650;2023-11-19T08:57:10;8.30;99.90
46378;DHT22;32083;47.360;9.650;2023-11-19T08:59:36;8.30;99.90
46378;DHT22;32083;47.360;9.650;2023-11-19T09:02:05;8.30;99.90
46378;DHT22;32083;47.360;9.650;2023-11-19T09:04:32;8.30;99.90
46378;DHT22;32083;47.360;9.650;2023-11-19T09:06:59;8.40;99.90
46378;DHT22;32083;47.360;9.650;2023-11-19T09:09:24;8.40;99.90
46378;DHT22;32083;47.360;9.650;2023-11-19T09:11:51;8.50;99.90
46378;DHT22;32083;47.360;9.650;2023-11-19T09:14:16;8.50;99.90
46378;DHT22;32083;47.360;9.650;2023-11-19T09:16:43;8.50;99.90
46378;DHT22;32083;47.360;9.650;2023-11-19T09:19:09;8.60;99.90
46378;DHT22;32083;47.360;9.650;2023-11-19T09:21:35;8.70;99.90
46378;DHT22;32083;47.360;9.650;2023-11-19T09:24:04;8.70;99.90
46378;DHT22;32083;47.360;9.650;2023-11-19T09:26:30;8.70;99.90
46378;DHT22;32083;47.360;9.650;2023-11-19T09:28:56;8.80;99.90
46378;DHT22;32083;47.360;9.650;2023-11-19T09:31:22;8.80;99.90
46378;DHT22;32083;47.360;9.650;2023-11-19T09:33:48;8.90;99.90
46378;DHT22;32083;47.360;9.650;2023-11-19T09:36:16;8.90;99.90
46378;DHT22;32083;47.360;9.650;2023-11-19T09:38:43;8.90;99.90
46378;DHT22;32083;47.360;9.650;2023-11-19T09:41:10;9.00;99.90
46378;DHT22;32083;47.360;9.650;2023-11-19T09:43:40;9.00;99.90
46378;DHT22;32083;47.360;9.650;2023-11-19T09:46:10;9.10;99.90
46378;DHT22;32083;47.360;9.650;2023-11-19T09:48:39;9.10;99.90
46378;DHT22;32083;47.360;9.650;2023-11-19T09:51:09;9.10;99.90
46378;DHT22;32083;47.360;9.650;2023-11-19T09:53:36;9.00;99.90
46378;DHT22;32083;47.360;9.650;2023-11-19T09:56:03;9.00;99.90
46378;DHT22;32083;47.360;9.650;2023-11-19T09:58:30;9.00;99.90
46378;DHT22;32083;47.360;9.650;2023-11-19T10:00:57;9.10;99.90
46378;DHT22;32083;47.360;9.650;2023-11-19T10:03:34;9.10;99.90
46378;DHT22;32083;47.360;9.650;2023-11-19T10:06:03;9.10;99.90
46378;DHT22;32083;47.360;9.650;2023-11-19T10:08:30;9.20;99.90
46378;DHT22;32083;47.360;9.650;2023-11-19T10:10:55;9.20;99.90
46378;DHT22;32083;47.360;9.650;2023-11-19T10:13:26;9.30;99.90
46378;DHT22;32083;47.360;9.650;2023-11-19T10:15:53;9.30;99.90
46378;DHT22;32083;47.360;9.650;2023-11-19T10:18:23;9.30;99.90
46378;DHT22;32083;47.360;9.650;2023-11-19T10:20:49;9.30;99.90
46378;DHT22;32083;47.360;9.650;2023-11-19T10:23:15;9.40;99.90
46378;DHT22;32083;47.360;9.650;2023-11-19T10:25:41;9.40;99.90
46378;DHT22;32083;47.360;9.650;2023-11-19T10:28:07;9.40;99.90
46378;DHT22;32083;47.360;9.650;2023-11-19T10:30:33;9.40;99.90
46378;DHT22;32083;47.360;9.650;2023-11-19T10:33:13;9.40;99.90
46378;DHT22;32083;47.360;9.650;2023-11-19T10:35:57;9.30;99.90
46378;DHT22;32083;47.360;9.650;2023-11-19T10:38:24;9.30;99.90
46378;DHT22;32083;47.360;9.650;2023-11-19T10:40:54;9.30;99.90
46378;DHT22;32083;47.360;9.650;2023-11-19T10:43:21;9.30;99.90
46378;DHT22;32083;47.360;9.650;2023-11-19T10:45:51;9.30;99.90
46378;DHT22;32083;47.360;9.650;2023-11-19T10:48:17;9.40;99.90
46378;DHT22;32083;47.360;9.650;2023-11-19T10:50:44;9.40;99.90
46378;DHT22;32083;47.360;9.650;2023-11-19T10:53:12;9.40;99.90
46378;DHT22;32083;47.360;9.650;2023-11-19T10:55:41;9.50;99.90
46378;DHT22;32083;47.360;9.650;2023-11-19T10:58:10;9.50;99.90
46378;DHT22;32083;47.360;9.650;2023-11-19T11:00:48;9.50;99.90
46378;DHT22;32083;47.360;9.650;2023-11-19T11:03:17;9.50;99.90
46378;DHT22;32083;47.360;9.650;2023-11-19T11:05:43;9.50;99.90
46378;DHT22;32083;47.360;9.650;2023-11-19T11:08:13;9.50;99.90
46378;DHT22;32083;47.360;9.650;2023-11-19T11:10:54;9.60;99.90
46378;DHT22;32083;47.360;9.650;2023-11-19T11:13:22;9.50;99.90
46378;DHT22;32083;47.360;9.650;2023-11-19T11:15:49;9.50;99.90
46378;DHT22;32083;47.360;9.650;2023-11-19T11:18:15;9.50;99.90
46378;DHT22;32083;47.360;9.650;2023-11-19T11:20:45;9.50;99.90
46378;DHT22;32083;47.360;9.650;2023-11-19T11:23:47;9.50;99.90
46378;DHT22;32083;47.360;9.650;2023-11-19T11:31:53;9.60;99.90
46378;DHT22;32083;47.360;9.650;2023-11-19T11:34:55;9.70;99.90
46378;DHT22;32083;47.360;9.650;2023-11-19T11:39:57;9.70;99.90
46378;DHT22;32083;47.360;9.650;2023-11-19T11:50:13;9.70;99.90
46378;DHT22;32083;47.360;9.650;2023-11-19T11:58:15;9.80;99.90
46378;DHT22;32083;47.360;9.650;2023-11-19T12:00:43;9.80;99.90
46378;DHT22;32083;47.360;9.650;2023-11-19T12:03:09;9.80;99.90
46378;DHT22;32083;47.360;9.650;2023-11-19T12:05:48;9.80;99.90
46378;DHT22;32083;47.360;9.650;2023-11-19T12:08:18;9.90;99.90
46378;DHT22;32083;47.360;9.650;2023-11-19T12:13:13;10.00;99.90
46378;DHT22;32083;47.360;9.650;2023-11-19T12:18:24;10.10;99.90
46378;DHT22;32083;47.360;9.650;2023-11-19T12:20:51;10.20;99.90
46378;DHT22;32083;47.360;9.650;2023-11-19T12:23:17;10.20;99.90
46378;DHT22;32083;47.360;9.650;2023-11-19T12:25:44;10.20;99.90
46378;DHT22;32083;47.360;9.650;2023-11-19T12:28:14;10.30;99.90
46378;DHT22;32083;47.360;9.650;2023-11-19T12:30:40;10.30;99.90
46378;DHT22;32083;47.360;9.650;2023-11-19T12:33:10;10.30;99.90
46378;DHT22;32083;47.360;9.650;2023-11-19T12:35:43;10.30;99.90
46378;DHT22;32083;47.360;9.650;2023-11-19T12:38:24;10.30;99.90
46378;DHT22;32083;47.360;9.650;2023-11-19T12:41:03;10.40;99.90
46378;DHT22;32083;47.360;9.650;2023-11-19T12:43:29;10.40;99.90
46378;DHT22;32083;47.360;9.650;2023-11-19T12:45:56;10.40;99.90
46378;DHT22;32083;47.360;9.650;2023-11-19T12:48:21;10.40;99.90
46378;DHT22;32083;47.360;9.650;2023-11-19T12:51:06;10.50;99.90
46378;DHT22;32083;47.360;9.650;2023-11-19T12:53:53;10.50;99.90
46378;DHT22;32083;47.360;9.650;2023-11-19T12:56:24;10.50;99.90
46378;DHT22;32083;47.360;9.650;2023-11-19T12:58:50;10.50;99.90
46378;DHT22;32083;47.360;9.650;2023-11-19T13:01:18;10.60;99.90
46378;DHT22;32083;47.360;9.650;2023-11-19T13:03:47;10.60;99.90
46378;DHT22;32083;47.360;9.650;2023-11-19T13:06:15;10.70;99.90
46378;DHT22;32083;47.360;9.650;2023-11-19T13:08:49;10.70;99.90
46378;DHT22;32083;47.360;9.650;2023-11-19T13:11:34;10.80;99.90
46378;DHT22;32083;47.360;9.650;2023-11-19T13:14:03;10.80;99.90
46378;DHT22;32083;47.360;9.650;2023-11-19T13:16:36;10.80;99.90
46378;DHT22;32083;47.360;9.650;2023-11-19T13:19:03;10.90;99.90
46378;DHT22;32083;47.360;9.650;2023-11-19T13:21:29;11.00;99.90
46378;DHT22;32083;47.360;9.650;2023-11-19T13:23:56;11.00;99.90
46378;DHT22;32083;47.360;9.650;2023-11-19T13:26:22;11.10;99.90
46378;DHT22;32083;47.360;9.650;2023-11-19T13:28:48;11.10;99.90
46378;DHT22;32083;47.360;9.650;2023-11-19T13:31:15;11.20;99.90
46378;DHT22;32083;47.360;9.650;2023-11-19T13:33:41;11.20;99.90
46378;DHT22;32083;47.360;9.650;2023-11-19T13:36:08;11.20;99.90
46378;DHT22;32083;47.360;9.650;2023-11-19T13:38:35;11.20;99.90
46378;DHT22;32083;47.360;9.650;2023-11-19T13:41:02;11.20;99.90
46378;DHT22;32083;47.360;9.650;2023-11-19T13:43:28;11.20;99.90
46378;DHT22;32083;47.360;9.650;2023-11-19T13:45:57;11.20;99.90
46378;DHT22;32083;47.360;9.650;2023-11-19T13:48:24;11.20;99.90
46378;DHT22;32083;47.360;9.650;2023-11-19T13:50:50;11.30;99.90
46378;DHT22;32083;47.360;9.650;2023-11-19T13:53:16;11.30;99.90
46378;DHT22;32083;47.360;9.650;2023-11-19T13:55:42;11.40;99.90
46378;DHT22;32083;47.360;9.650;2023-11-19T13:58:09;11.50;99.90
46378;DHT22;32083;47.360;9.650;2023-11-19T14:00:36;11.50;99.90
46378;DHT22;32083;47.360;9.650;2023-11-19T14:03:02;11.50;99.90
46378;DHT22;32083;47.360;9.650;2023-11-19T14:05:28;11.50;99.90
46378;DHT22;32083;47.360;9.650;2023-11-19T14:07:54;11.60;99.90
46378;DHT22;32083;47.360;9.650;2023-11-19T14:10:22;11.60;99.90
46378;DHT22;32083;47.360;9.650;2023-11-19T14:12:48;11.60;99.90
46378;DHT22;32083;47.360;9.650;2023-11-19T14:15:15;11.60;99.90
46378;DHT22;32083;47.360;9.650;2023-11-19T14:17:44;11.60;99.90
46378;DHT22;32083;47.360;9.650;2023-11-19T14:20:10;11.60;99.90
46378;DHT22;32083;47.360;9.650;2023-11-19T14:22:43;11.70;99.90
46378;DHT22;32083;47.360;9.650;2023-11-19T14:25:09;11.60;99.90
46378;DHT22;32083;47.360;9.650;2023-11-19T14:27:40;11.60;99.90
46378;DHT22;32083;47.360;9.650;2023-11-19T14:30:07;11.60;99.90
46378;DHT22;32083;47.360;9.650;2023-11-19T14:32:35;11.60;99.90
46378;DHT22;32083;47.360;9.650;2023-11-19T14:35:02;11.60;99.90
46378;DHT22;32083;47.360;9.650;2023-11-19T14:37:29;11.50;99.90
46378;DHT22;32083;47.360;9.650;2023-11-19T14:39:57;11.50;99.90
46378;DHT22;32083;47.360;9.650;2023-11-19T14:42:26;11.30;99.90
46378;DHT22;32083;47.360;9.650;2023-11-19T14:44:52;11.40;99.90
46378;DHT22;32083;47.360;9.650;2023-11-19T14:47:19;11.40;99.90
46378;DHT22;32083;47.360;9.650;2023-11-19T14:49:45;11.40;99.90
46378;DHT22;32083;47.360;9.650;2023-11-19T14:52:11;11.40;99.90
46378;DHT22;32083;47.360;9.650;2023-11-19T14:54:38;11.40;99.90
46378;DHT22;32083;47.360;9.650;2023-11-19T14:57:07;11.40;99.90
46378;DHT22;32083;47.360;9.650;2023-11-19T14:59:36;11.30;99.90
46378;DHT22;32083;47.360;9.650;2023-11-19T15:02:03;11.30;99.90
46378;DHT22;32083;47.360;9.650;2023-11-19T15:04:30;11.30;99.90
46378;DHT22;32083;47.360;9.650;2023-11-19T15:06:59;11.20;99.90
46378;DHT22;32083;47.360;9.650;2023-11-19T15:09:26;11.20;99.90
46378;DHT22;32083;47.360;9.650;2023-11-19T15:11:55;11.20;99.90
46378;DHT22;32083;47.360;9.650;2023-11-19T15:14:21;11.10;99.90
46378;DHT22;32083;47.360;9.650;2023-11-19T15:16:47;11.20;99.90
46378;DHT22;32083;47.360;9.650;2023-11-19T15:19:17;11.20;99.90
46378;DHT22;32083;47.360;9.650;2023-11-19T15:21:43;11.20;99.90
46378;DHT22;32083;47.360;9.650;2023-11-19T15:24:09;11.10;99.90
46378;DHT22;32083;47.360;9.650;2023-11-19T15:26:37;11.10;99.90
46378;DHT22;32083;47.360;9.650;2023-11-19T15:29:04;11.10;99.90
46378;DHT22;32083;47.360;9.650;2023-11-19T15:31:30;11.10;99.90
46378;DHT22;32083;47.360;9.650;2023-11-19T15:33:56;11.10;99.90
46378;DHT22;32083;47.360;9.650;2023-11-19T15:36:22;11.10;99.90
46378;DHT22;32083;47.360;9.650;2023-11-19T15:38:48;11.10;99.90
46378;DHT22;32083;47.360;9.650;2023-11-19T15:41:14;11.10;99.90
46378;DHT22;32083;47.360;9.650;2023-11-19T15:43:41;11.10;99.90
46378;DHT22;32083;47.360;9.650;2023-11-19T15:46:10;11.10;99.90
46378;DHT22;32083;47.360;9.650;2023-11-19T15:48:39;11.10;99.90
46378;DHT22;32083;47.360;9.650;2023-11-19T15:51:05;11.10;99.90
46378;DHT22;32083;47.360;9.650;2023-11-19T15:53:31;11.00;99.90
46378;DHT22;32083;47.360;9.650;2023-11-19T15:55:58;11.00;99.90
46378;DHT22;32083;47.360;9.650;2023-11-19T15:58:24;11.00;99.90
46378;DHT22;32083;47.360;9.650;2023-11-19T16:00:50;10.90;99.90
46378;DHT22;32083;47.360;9.650;2023-11-19T16:03:16;11.00;99.90
46378;DHT22;32083;47.360;9.650;2023-11-19T16:05:42;10.90;99.90
46378;DHT22;32083;47.360;9.650;2023-11-19T16:08:08;10.90;99.90
46378;DHT22;32083;47.360;9.650;2023-11-19T16:10:36;10.90;99.90
46378;DHT22;32083;47.360;9.650;2023-11-19T16:13:08;10.90;99.90
46378;DHT22;32083;47.360;9.650;2023-11-19T16:15:34;10.80;99.90
46378;DHT22;32083;47.360;9.650;2023-11-19T16:18:00;10.70;99.90
46378;DHT22;32083;47.360;9.650;2023-11-19T16:20:26;10.70;99.90
46378;DHT22;32083;47.360;9.650;2023-11-19T16:22:52;10.80;99.90
46378;DHT22;32083;47.360;9.650;2023-11-19T16:25:18;10.70;99.90
46378;DHT22;32083;47.360;9.650;2023-11-19T16:27:44;10.60;99.90
46378;DHT22;32083;47.360;9.650;2023-11-19T16:30:11;10.70;99.90
46378;DHT22;32083;47.360;9.650;2023-11-19T16:32:49;10.70;99.90
46378;DHT22;32083;47.360;9.650;2023-11-19T16:35:16;10.80;99.90
46378;DHT22;32083;47.360;9.650;2023-11-19T16:37:42;10.80;99.90
46378;DHT22;32083;47.360;9.650;2023-11-19T16:40:09;10.80;99.90
46378;DHT22;32083;47.360;9.650;2023-11-19T16:42:37;10.80;99.90
46378;DHT22;32083;47.360;9.650;2023-11-19T16:45:05;10.60;99.90
46378;DHT22;32083;47.360;9.650;2023-11-19T16:47:31;10.50;99.90
46378;DHT22;32083;47.360;9.650;2023-11-19T16:49:57;10.40;99.90
46378;DHT22;32083;47.360;9.650;2023-11-19T16:52:23;10.40;99.90
46378;DHT22;32083;47.360;9.650;2023-11-19T16:54:54;10.40;99.90
46378;DHT22;32083;47.360;9.650;2023-11-19T16:57:20;10.40;99.90
46378;DHT22;32083;47.360;9.650;2023-11-19T16:59:48;10.40;99.90
46378;DHT22;32083;47.360;9.650;2023-11-19T17:02:16;10.40;99.90
46378;DHT22;32083;47.360;9.650;2023-11-19T17:04:42;10.30;99.90
46378;DHT22;32083;47.360;9.650;2023-11-19T17:07:08;10.30;99.90
46378;DHT22;32083;47.360;9.650;2023-11-19T17:09:34;10.30;99.90
46378;DHT22;32083;47.360;9.650;2023-11-19T17:12:00;10.20;99.90
46378;DHT22;32083;47.360;9.650;2023-11-19T17:14:26;10.30;99.90
46378;DHT22;32083;47.360;9.650;2023-11-19T17:16:52;10.30;99.90
46378;DHT22;32083;47.360;9.650;2023-11-19T17:19:18;10.20;99.90
46378;DHT22;32083;47.360;9.650;2023-11-19T17:21:45;10.20;99.90
46378;DHT22;32083;47.360;9.650;2023-11-19T17:24:11;10.20;99.90
46378;DHT22;32083;47.360;9.650;2023-11-19T17:26:37;10.20;99.90
46378;DHT22;32083;47.360;9.650;2023-11-19T17:29:03;10.20;99.90
46378;DHT22;32083;47.360;9.650;2023-11-19T17:31:33;10.20;99.90
46378;DHT22;32083;47.360;9.650;2023-11-19T17:34:01;10.20;99.90
46378;DHT22;32083;47.360;9.650;2023-11-19T17:36:27;10.20;99.90
46378;DHT22;32083;47.360;9.650;2023-11-19T17:38:53;10.20;99.90
46378;DHT22;32083;47.360;9.650;2023-11-19T17:41:19;10.20;99.90
46378;DHT22;32083;47.360;9.650;2023-11-19T17:43:45;10.20;99.90
46378;DHT22;32083;47.360;9.650;2023-11-19T17:46:11;10.20;99.90
46378;DHT22;32083;47.360;9.650;2023-11-19T17:48:37;10.20;99.90
46378;DHT22;32083;47.360;9.650;2023-11-19T17:51:03;10.20;99.90
46378;DHT22;32083;47.360;9.650;2023-11-19T17:53:30;10.20;99.90
46378;DHT22;32083;47.360;9.650;2023-11-19T17:55:57;10.20;99.90
46378;DHT22;32083;47.360;9.650;2023-11-19T17:58:23;10.20;99.90
46378;DHT22;32083;47.360;9.650;2023-11-19T18:00:49;10.20;99.90
46378;DHT22;32083;47.360;9.650;2023-11-19T18:03:15;10.20;99.90
46378;DHT22;32083;47.360;9.650;2023-11-19T18:05:42;10.30;99.90
46378;DHT22;32083;47.360;9.650;2023-11-19T18:08:09;10.20;99.90
46378;DHT22;32083;47.360;9.650;2023-11-19T18:10:37;10.20;99.90
46378;DHT22;32083;47.360;9.650;2023-11-19T18:13:03;10.20;99.90
46378;DHT22;32083;47.360;9.650;2023-11-19T18:15:29;10.20;99.90
46378;DHT22;32083;47.360;9.650;2023-11-19T18:17:55;10.20;99.90
46378;DHT22;32083;47.360;9.650;2023-11-19T18:20:21;10.20;99.90
46378;DHT22;32083;47.360;9.650;2023-11-19T18:22:48;10.20;99.90
46378;DHT22;32083;47.360;9.650;2023-11-19T18:25:14;10.30;99.90
46378;DHT22;32083;47.360;9.650;2023-11-19T18:27:43;10.20;99.90
46378;DHT22;32083;47.360;9.650;2023-11-19T18:30:09;10.20;99.90
46378;DHT22;32083;47.360;9.650;2023-11-19T18:32:36;10.30;99.90
46378;DHT22;32083;47.360;9.650;2023-11-19T18:35:03;10.30;99.90
46378;DHT22;32083;47.360;9.650;2023-11-19T18:37:31;10.40;99.90
46378;DHT22;32083;47.360;9.650;2023-11-19T18:39:56;10.40;99.90
46378;DHT22;32083;47.360;9.650;2023-11-19T18:42:22;10.50;99.90
46378;DHT22;32083;47.360;9.650;2023-11-19T18:44:48;10.50;99.90
46378;DHT22;32083;47.360;9.650;2023-11-19T18:47:14;10.50;99.90
46378;DHT22;32083;47.360;9.650;2023-11-19T18:49:40;10.50;99.90
46378;DHT22;32083;47.360;9.650;2023-11-19T18:52:06;10.40;99.90
46378;DHT22;32083;47.360;9.650;2023-11-19T18:54:33;10.50;99.90
46378;DHT22;32083;47.360;9.650;2023-11-19T18:57:00;10.40;99.90
46378;DHT22;32083;47.360;9.650;2023-11-19T18:59:26;10.40;99.90
46378;DHT22;32083;47.360;9.650;2023-11-19T19:01:52;10.40;99.90
46378;DHT22;32083;47.360;9.650;2023-11-19T19:04:18;10.40;99.90
46378;DHT22;32083;47.360;9.650;2023-11-19T19:06:44;10.40;99.90
46378;DHT22;32083;47.360;9.650;2023-11-19T19:09:14;10.30;99.90
46378;DHT22;32083;47.360;9.650;2023-11-19T19:11:44;10.30;99.90
46378;DHT22;32083;47.360;9.650;2023-11-19T19:14:10;10.30;99.90
46378;DHT22;32083;47.360;9.650;2023-11-19T19:16:39;10.30;99.90
46378;DHT22;32083;47.360;9.650;2023-11-19T19:19:05;10.30;99.90
46378;DHT22;32083;47.360;9.650;2023-11-19T19:21:31;10.20;99.90
46378;DHT22;32083;47.360;9.650;2023-11-19T19:23:57;10.20;99.90
46378;DHT22;32083;47.360;9.650;2023-11-19T19:26:32;10.20;99.90
46378;DHT22;32083;47.360;9.650;2023-11-19T19:28:58;10.20;99.90
46378;DHT22;32083;47.360;9.650;2023-11-19T19:31:24;10.20;99.90
46378;DHT22;32083;47.360;9.650;2023-11-19T19:33:51;10.20;99.90
46378;DHT22;32083;47.360;9.650;2023-11-19T19:36:30;10.10;99.90
46378;DHT22;32083;47.360;9.650;2023-11-19T19:38:58;10.10;99.90
46378;DHT22;32083;47.360;9.650;2023-11-19T19:41:24;10.10;99.90
46378;DHT22;32083;47.360;9.650;2023-11-19T19:43:52;10.10;99.90
46378;DHT22;32083;47.360;9.650;2023-11-19T19:46:18;10.10;99.90
46378;DHT22;32083;47.360;9.650;2023-11-19T19:48:45;10.10;99.90
46378;DHT22;32083;47.360;9.650;2023-11-19T19:51:11;10.10;99.90
46378;DHT22;32083;47.360;9.650;2023-11-19T19:53:37;10.10;99.90
46378;DHT22;32083;47.360;9.650;2023-11-19T19:56:04;10.10;99.90
46378;DHT22;32083;47.360;9.650;2023-11-19T19:58:30;10.10;99.90
46378;DHT22;32083;47.360;9.650;2023-11-19T20:00:58;10.10;99.90
46378;DHT22;32083;47.360;9.650;2023-11-19T20:03:28;10.00;99.90
46378;DHT22;32083;47.360;9.650;2023-11-19T20:05:58;10.10;99.90
46378;DHT22;32083;47.360;9.650;2023-11-19T20:08:25;10.10;99.90
46378;DHT22;32083;47.360;9.650;2023-11-19T20:10:53;10.10;99.90
46378;DHT22;32083;47.360;9.650;2023-11-19T20:13:19;10.10;99.90
46378;DHT22;32083;47.360;9.650;2023-11-19T20:15:48;10.10;99.90
46378;DHT22;32083;47.360;9.650;2023-11-19T20:18:16;10.20;99.90
46378;DHT22;32083;47.360;9.650;2023-11-19T20:20:42;10.10;99.90
46378;DHT22;32083;47.360;9.650;2023-11-19T20:23:08;10.00;99.90
46378;DHT22;32083;47.360;9.650;2023-11-19T20:25:35;10.00;99.90
46378;DHT22;32083;47.360;9.650;2023-11-19T20:28:01;9.90;99.90
46378;DHT22;32083;47.360;9.650;2023-11-19T20:30:27;9.70;99.90
46378;DHT22;32083;47.360;9.650;2023-11-19T20:32:53;9.80;99.90
46378;DHT22;32083;47.360;9.650;2023-11-19T20:35:20;9.90;99.90
46378;DHT22;32083;47.360;9.650;2023-11-19T20:37:46;9.90;99.90
46378;DHT22;32083;47.360;9.650;2023-11-19T20:40:12;9.90;99.90
46378;DHT22;32083;47.360;9.650;2023-11-19T20:42:39;9.80;99.90
46378;DHT22;32083;47.360;9.650;2023-11-19T20:45:08;9.80;99.90